Time;durP1;ratioP1;P1;durP2;ratioP2;P2;SDS_P1;SDS_P2;PMS_P1;PMS_P2;Temp;Humidity;BMP_temperature;BMP_pressure;BME280_temperature;BME280_humidity;BME280_pressure;Samples;Min_cycle;Max_cycle;Signal;HPM_P1;HPM_P2
2023/12/01 00:01:36;;;;;;;;;;;;;;;2.63;39.99;100612.34;5054217;28;19916;-59
2023/12/01 00:04:02;;;;;;;;;;;;;;;2.59;39.89;100618.09;5054696;28;19917;-59
2023/12/01 00:06:27;;;;;;;;;;;;;;;2.56;40.21;100624.47;5054533;28;20411;-58
2023/12/01 00:08:52;;;;;;;;;;;;;;;2.51;40.16;100627.56;5054173;28;19989;-59
2023/12/01 00:11:18;;;;;;;;;;;;;;;2.46;39.42;100621.00;5055649;28;19928;-58
2023/12/01 00:13:43;;;;;;;;;;;;;;;2.41;39.96;100626.69;5074031;28;19973;-59
2023/12/01 00:16:09;;;;;;;;;;;;;;;2.38;40.40;100624.34;5067422;28;19913;-59
2023/12/01 00:18:35;;;;;;;;;;;;;;;2.33;39.76;100623.91;5054415;28;19917;-59
2023/12/01 00:21:00;;;;;;;;;;;;;;;2.31;39.78;100617.91;5054001;28;20385;-59
2023/12/01 00:23:26;;;;;;;;;;;;;;;2.25;39.87;100627.22;5053860;28;20002;-59
2023/12/01 00:25:51;;;;;;;;;;;;;;;2.25;40.54;100624.59;5054091;28;19913;-59
2023/12/01 00:28:16;;;;;;;;;;;;;;;2.22;39.97;100624.00;5054179;28;19995;-59
2023/12/01 00:30:42;;;;;;;;;;;;;;;2.20;39.86;100618.03;5054139;28;19920;-59
2023/12/01 00:33:07;;;;;;;;;;;;;;;2.19;39.80;100616.31;5053829;28;20293;-59
2023/12/01 00:35:32;;;;;;;;;;;;;;;2.16;40.05;100614.78;5045940;28;19920;-59
2023/12/01 00:37:58;;;;;;;;;;;;;;;2.18;39.72;100622.63;5033841;28;20300;-59
2023/12/01 00:40:23;;;;;;;;;;;;;;;2.15;40.03;100617.56;5045887;28;19912;-59
2023/12/01 00:42:49;;;;;;;;;;;;;;;2.15;39.97;100613.09;5054071;28;19913;-58
2023/12/01 00:45:15;;;;;;;;;;;;;;;2.15;40.04;100614.94;5053905;28;20373;-58
2023/12/01 00:47:41;;;;;;;;;;;;;;;2.16;40.28;100608.66;5053467;28;19929;-59
2023/12/01 00:50:06;;;;;;;;;;;;;;;2.12;40.27;100610.75;5053353;28;20243;-59
2023/12/01 00:52:31;;;;;;;;;;;;;;;2.10;39.96;100610.06;5053070;28;19921;-59
2023/12/01 00:54:57;;;;;;;;;;;;;;;2.10;39.76;100618.00;5053019;28;19924;-59
2023/12/01 00:57:22;;;;;;;;;;;;;;;2.05;40.37;100609.59;5053877;28;19913;-59
2023/12/01 00:59:49;;;;;;;;;;;;;;;2.06;40.42;100614.78;5053465;28;19920;-58
2023/12/01 01:02:14;;;;;;;;;;;;;;;2.10;40.12;100618.00;5053120;28;19913;-58
2023/12/01 01:04:40;;;;;;;;;;;;;;;2.13;40.46;100615.88;5053546;28;19913;-59
2023/12/01 01:07:05;;;;;;;;;;;;;;;2.11;40.35;100614.34;5053478;28;20002;-58
2023/12/01 01:09:31;;;;;;;;;;;;;;;2.05;39.93;100621.03;5053160;28;20007;-59
2023/12/01 01:11:56;;;;;;;;;;;;;;;1.98;39.17;100616.41;5072440;28;20022;-59
2023/12/01 01:14:21;;;;;;;;;;;;;;;1.92;39.72;100620.44;5072906;28;20389;-59
2023/12/01 01:16:47;;;;;;;;;;;;;;;1.87;39.59;100633.22;5061351;28;19916;-58
2023/12/01 01:19:12;;;;;;;;;;;;;;;1.82;39.75;100623.06;5053221;28;20028;-59
2023/12/01 01:21:38;;;;;;;;;;;;;;;1.80;39.61;100619.69;5052895;28;19940;-59
2023/12/01 01:24:03;;;;;;;;;;;;;;;1.82;40.10;100619.53;5053009;28;20008;-58
2023/12/01 01:26:28;;;;;;;;;;;;;;;1.79;39.81;100618.00;5035272;28;19913;-58
2023/12/01 01:28:54;;;;;;;;;;;;;;;1.78;40.11;100620.78;5052876;28;19913;-58
2023/12/01 01:31:19;;;;;;;;;;;;;;;1.77;39.63;100616.47;5053123;28;19914;-57
2023/12/01 01:33:44;;;;;;;;;;;;;;;1.82;40.46;100616.91;5052904;28;20374;-58
2023/12/01 01:36:10;;;;;;;;;;;;;;;1.84;39.95;100620.25;5047879;28;20011;-58
2023/12/01 01:38:37;;;;;;;;;;;;;;;1.81;39.62;100617.88;5052834;28;20008;-57
2023/12/01 01:41:03;;;;;;;;;;;;;;;1.68;39.58;100615.47;5052697;28;19920;-58
2023/12/01 01:43:28;;;;;;;;;;;;;;;1.64;40.19;100624.63;5052986;28;20273;-59
2023/12/01 01:46:00;;;;;;;;;;;;;;;1.59;39.44;100621.53;5052843;28;19963;-59
2023/12/01 01:48:26;;;;;;;;;;;;;;;1.51;39.69;100630.97;5052679;28;19912;-58
2023/12/01 01:50:53;;;;;;;;;;;;;;;1.46;39.94;100616.47;5052361;28;19936;-58
2023/12/01 01:53:18;;;;;;;;;;;;;;;1.46;39.64;100624.41;5052646;28;19924;-59
2023/12/01 01:55:45;;;;;;;;;;;;;;;1.45;39.52;100630.63;5052038;28;19912;-59
2023/12/01 01:58:12;;;;;;;;;;;;;;;1.40;39.44;100623.09;5053022;28;19913;-59
2023/12/01 02:00:37;;;;;;;;;;;;;;;1.39;39.50;100624.06;5052523;28;19966;-59
2023/12/01 02:03:03;;;;;;;;;;;;;;;1.38;40.12;100618.94;5052539;28;19917;-59
2023/12/01 02:05:29;;;;;;;;;;;;;;;1.34;39.55;100624.47;5052917;28;20362;-59
2023/12/01 02:07:54;;;;;;;;;;;;;;;1.36;39.92;100608.47;5069362;28;19917;-58
2023/12/01 02:10:20;;;;;;;;;;;;;;;1.31;39.61;100619.44;5061806;28;19912;-58
2023/12/01 02:12:46;;;;;;;;;;;;;;;1.30;39.94;100607.19;5052246;28;19968;-58
2023/12/01 02:15:12;;;;;;;;;;;;;;;1.38;40.38;100609.19;5052757;28;19990;-59
2023/12/01 02:17:38;;;;;;;;;;;;;;;1.41;40.80;100608.94;5052723;28;20007;-58
2023/12/01 02:20:05;;;;;;;;;;;;;;;1.42;40.41;100607.09;5052519;28;20434;-59
2023/12/01 02:22:31;;;;;;;;;;;;;;;1.36;40.51;100595.25;5038136;28;19920;-59
2023/12/01 02:24:57;;;;;;;;;;;;;;;1.46;40.14;100609.34;5056196;28;19916;-59
2023/12/01 02:27:23;;;;;;;;;;;;;;;1.53;40.32;100607.03;5056317;28;19913;-58
2023/12/01 02:29:48;;;;;;;;;;;;;;;1.52;39.97;100608.84;5056271;28;20278;-59
2023/12/01 02:32:13;;;;;;;;;;;;;;;1.51;40.23;100603.69;5055810;28;20281;-58
2023/12/01 02:34:41;;;;;;;;;;;;;;;1.60;40.98;100607.31;5056390;28;19912;-59
2023/12/01 02:37:06;;;;;;;;;;;;;;;1.58;40.30;100599.53;5075945;28;19912;-59
2023/12/01 02:39:32;;;;;;;;;;;;;;;1.60;40.47;100602.03;5076186;28;19918;-59
2023/12/01 02:41:57;;;;;;;;;;;;;;;1.66;40.27;100605.00;5076045;28;19913;-58
2023/12/01 02:44:22;;;;;;;;;;;;;;;1.67;40.55;100603.19;5075978;28;19917;-57
2023/12/01 02:46:48;;;;;;;;;;;;;;;1.70;40.41;100609.03;5075823;28;20326;-58
2023/12/01 02:49:13;;;;;;;;;;;;;;;1.70;40.58;100609.03;5075615;28;19935;-57
2023/12/01 02:51:38;;;;;;;;;;;;;;;1.74;40.45;100609.63;5062823;28;19938;-57
2023/12/01 02:54:04;;;;;;;;;;;;;;;1.69;40.55;100610.03;5054980;28;19916;-58
2023/12/01 02:56:29;;;;;;;;;;;;;;;1.66;40.40;100605.00;5055667;28;20396;-58
2023/12/01 02:58:55;;;;;;;;;;;;;;;1.68;40.25;100605.69;5055619;28;19912;-58
2023/12/01 03:01:20;;;;;;;;;;;;;;;1.68;40.53;100608.34;5055604;28;19920;-58
2023/12/01 03:03:45;;;;;;;;;;;;;;;1.67;40.79;100611.13;5068875;28;20323;-57
2023/12/01 03:06:11;;;;;;;;;;;;;;;1.66;40.73;100609.47;5075610;28;19955;-58
2023/12/01 03:08:36;;;;;;;;;;;;;;;1.65;40.08;100613.06;5057311;28;20273;-58
2023/12/01 03:11:06;;;;;;;;;;;;;;;1.67;40.40;100608.47;5075061;28;20293;-58
2023/12/01 03:13:31;;;;;;;;;;;;;;;1.65;40.25;100610.41;5075219;28;19916;-58
2023/12/01 03:15:57;;;;;;;;;;;;;;;1.64;40.07;100604.28;5052255;28;19917;-57
2023/12/01 03:18:22;;;;;;;;;;;;;;;1.61;40.31;100604.53;5054993;28;19913;-58
2023/12/01 03:20:48;;;;;;;;;;;;;;;1.65;40.03;100600.66;5055029;28;20369;-57
2023/12/01 03:23:13;;;;;;;;;;;;;;;1.65;40.00;100608.59;5055461;28;19913;-57
2023/12/01 03:25:39;;;;;;;;;;;;;;;1.61;39.67;100599.25;5055079;28;20015;-58
2023/12/01 03:28:04;;;;;;;;;;;;;;;1.61;39.96;100601.91;5054895;28;19952;-58
2023/12/01 03:30:29;;;;;;;;;;;;;;;1.63;40.10;100601.78;5055114;28;19965;-58
2023/12/01 03:32:55;;;;;;;;;;;;;;;1.56;40.03;100598.84;5054893;28;19917;-58
2023/12/01 03:35:24;;;;;;;;;;;;;;;1.48;39.04;100598.63;5060867;28;19965;-54
2023/12/01 03:37:56;;;;;;;;;;;;;;;1.42;40.06;100597.34;5057228;28;19947;-58
2023/12/01 03:40:21;;;;;;;;;;;;;;;1.43;40.33;100600.84;5074788;28;19912;-58
2023/12/01 03:42:47;;;;;;;;;;;;;;;1.44;39.56;100597.22;5074829;28;19939;-58
2023/12/01 03:45:13;;;;;;;;;;;;;;;1.44;40.38;100603.34;5074858;28;19912;-57
2023/12/01 03:47:42;;;;;;;;;;;;;;;1.46;39.70;100601.41;5074747;28;20461;-57
2023/12/01 03:50:14;;;;;;;;;;;;;;;1.47;40.06;100591.69;5065009;28;19924;-58
2023/12/01 03:52:41;;;;;;;;;;;;;;;1.48;39.58;100591.53;5054499;28;19920;-56
2023/12/01 03:55:06;;;;;;;;;;;;;;;1.46;40.06;100588.19;5054168;28;19913;-57
2023/12/01 03:57:31;;;;;;;;;;;;;;;1.49;40.23;100592.38;5055001;28;19999;-58
2023/12/01 03:59:57;;;;;;;;;;;;;;;1.47;39.98;100594.34;5067661;28;19916;-58
2023/12/01 04:02:22;;;;;;;;;;;;;;;1.46;40.08;100593.47;5064612;28;19913;-57
2023/12/01 04:04:49;;;;;;;;;;;;;;;1.48;39.90;100588.06;5054131;28;19913;-58
2023/12/01 04:07:14;;;;;;;;;;;;;;;1.47;39.75;100594.34;5054239;28;19916;-57
2023/12/01 04:09:40;;;;;;;;;;;;;;;1.47;39.99;100589.03;5054217;28;19912;-57
2023/12/01 04:12:05;;;;;;;;;;;;;;;1.50;39.80;100597.53;5053826;28;19943;-57
2023/12/01 04:14:30;;;;;;;;;;;;;;;1.53;40.56;100586.69;5054302;28;19917;-57
2023/12/01 04:16:56;;;;;;;;;;;;;;;1.47;40.02;100592.50;5053875;28;20372;-56
2023/12/01 04:19:22;;;;;;;;;;;;;;;1.47;40.17;100591.69;5053995;28;19920;-58
2023/12/01 04:21:47;;;;;;;;;;;;;;;1.46;40.66;100590.00;5053861;28;19920;-57
2023/12/01 04:24:12;;;;;;;;;;;;;;;1.45;40.14;100589.16;5053599;28;19995;-57
2023/12/01 04:26:38;;;;;;;;;;;;;;;1.44;40.00;100592.75;5053955;28;19935;-56
2023/12/01 04:29:03;;;;;;;;;;;;;;;1.42;40.49;100601.81;5053686;28;20026;-57
2023/12/01 04:31:28;;;;;;;;;;;;;;;1.48;40.39;100598.63;5054351;28;19917;-58
2023/12/01 04:33:55;;;;;;;;;;;;;;;1.45;39.85;100598.88;5053787;28;20365;-58
2023/12/01 04:36:22;;;;;;;;;;;;;;;1.44;39.99;100592.75;5068235;28;19919;-58
2023/12/01 04:38:48;;;;;;;;;;;;;;;1.50;39.85;100594.88;5073732;28;20006;-57
2023/12/01 04:41:13;;;;;;;;;;;;;;;1.47;40.14;100599.63;5055189;28;20001;-58
2023/12/01 04:43:41;;;;;;;;;;;;;;;1.45;39.70;100604.19;5052944;28;19912;-58
2023/12/01 04:46:08;;;;;;;;;;;;;;;1.42;39.19;100594.72;5053846;28;20023;-58
2023/12/01 04:48:34;;;;;;;;;;;;;;;1.38;39.46;100590.66;5053765;28;19960;-58
2023/12/01 04:50:59;;;;;;;;;;;;;;;1.32;39.91;100593.84;5053433;28;19952;-58
2023/12/01 04:53:25;;;;;;;;;;;;;;;1.33;40.21;100587.56;5053423;28;20008;-57
2023/12/01 04:55:50;;;;;;;;;;;;;;;1.35;39.90;100586.44;5061981;28;19913;-57
2023/12/01 04:58:15;;;;;;;;;;;;;;;1.38;40.36;100582.72;5071591;28;19923;-58
2023/12/01 05:00:41;;;;;;;;;;;;;;;1.31;40.17;100584.22;5055550;28;19965;-59
2023/12/01 05:03:07;;;;;;;;;;;;;;;1.39;39.97;100588.84;5057960;28;19913;-57
2023/12/01 05:05:33;;;;;;;;;;;;;;;1.39;40.24;100589.66;5053391;28;20397;-57
2023/12/01 05:08:00;;;;;;;;;;;;;;;1.35;39.55;100586.44;5035125;28;20324;-58
2023/12/01 05:10:26;;;;;;;;;;;;;;;1.30;39.78;100583.38;5053560;28;20003;-59
2023/12/01 05:12:54;;;;;;;;;;;;;;;1.27;40.06;100585.44;5035049;28;20074;-58
2023/12/01 05:15:21;;;;;;;;;;;;;;;1.27;39.53;100583.63;5035554;28;19919;-57
2023/12/01 05:17:50;;;;;;;;;;;;;;;1.30;39.75;100582.50;5032682;28;20333;-57
2023/12/01 05:20:16;;;;;;;;;;;;;;;1.30;40.40;100580.72;5053276;28;19977;-58
2023/12/01 05:22:43;;;;;;;;;;;;;;;1.26;39.96;100578.47;5052862;28;20270;-59
2023/12/01 05:25:13;;;;;;;;;;;;;;;1.23;39.93;100584.03;5053097;28;20007;-58
2023/12/01 05:27:40;;;;;;;;;;;;;;;1.19;39.62;100575.50;5053128;28;20023;-58
2023/12/01 05:30:05;;;;;;;;;;;;;;;1.17;40.63;100577.47;5053059;28;19913;-58
2023/12/01 05:32:31;;;;;;;;;;;;;;;1.16;40.25;100579.25;5053137;28;19920;-58
2023/12/01 05:34:56;;;;;;;;;;;;;;;1.16;39.42;100581.06;5055826;28;20387;-58
2023/12/01 05:37:22;;;;;;;;;;;;;;;1.12;39.62;100579.66;5073229;28;19966;-58
2023/12/01 05:39:47;;;;;;;;;;;;;;;1.11;39.62;100581.44;5073325;28;19924;-59
2023/12/01 05:42:13;;;;;;;;;;;;;;;1.07;39.89;100581.84;5072942;28;20408;-58
2023/12/01 05:44:38;;;;;;;;;;;;;;;1.03;39.91;100577.78;5072827;28;19920;-58
2023/12/01 05:47:03;;;;;;;;;;;;;;;1.04;40.16;100584.72;5072854;28;19913;-58
2023/12/01 05:49:29;;;;;;;;;;;;;;;1.03;39.67;100593.63;5072851;28;19912;-58
2023/12/01 05:51:54;;;;;;;;;;;;;;;0.99;39.82;100594.88;5066975;28;19916;-59
2023/12/01 05:54:19;;;;;;;;;;;;;;;0.98;39.80;100593.19;5067154;28;19947;-59
2023/12/01 05:56:45;;;;;;;;;;;;;;;0.97;40.15;100595.00;5057371;28;20019;-59
2023/12/01 05:59:10;;;;;;;;;;;;;;;0.93;39.80;100590.94;5056752;28;19912;-57
2023/12/01 06:01:36;;;;;;;;;;;;;;;0.91;39.45;100599.00;5056696;28;19912;-58
2023/12/01 06:04:02;;;;;;;;;;;;;;;0.91;39.50;100596.34;5056372;28;20200;-58
2023/12/01 06:06:28;;;;;;;;;;;;;;;0.94;39.85;100597.88;5056641;28;19948;-58
2023/12/01 06:08:53;;;;;;;;;;;;;;;0.94;39.64;100595.25;5056755;28;19967;-59
2023/12/01 06:11:18;;;;;;;;;;;;;;;0.92;39.40;100597.19;5056343;28;19920;-58
2023/12/01 06:13:44;;;;;;;;;;;;;;;0.90;39.80;100594.66;5056332;28;19921;-58
2023/12/01 06:16:09;;;;;;;;;;;;;;;0.88;40.19;100593.94;5056280;28;20005;-59
2023/12/01 06:18:34;;;;;;;;;;;;;;;0.90;39.98;100593.81;5056367;28;20376;-57
2023/12/01 06:21:00;;;;;;;;;;;;;;;0.86;39.83;100595.88;5056297;28;19913;-58
2023/12/01 06:23:25;;;;;;;;;;;;;;;0.83;40.00;100598.78;5056265;28;19912;-57
2023/12/01 06:25:51;;;;;;;;;;;;;;;0.82;39.76;100597.13;5055916;28;19913;-58
2023/12/01 06:28:16;;;;;;;;;;;;;;;0.78;39.28;100598.34;5056256;28;19912;-59
2023/12/01 06:30:41;;;;;;;;;;;;;;;0.74;38.91;100595.09;5056131;28;19932;-58
2023/12/01 06:33:07;;;;;;;;;;;;;;;0.77;39.46;100604.56;5055797;28;19970;-58
2023/12/01 06:35:32;;;;;;;;;;;;;;;0.72;39.76;100604.94;5056195;28;19913;-59
2023/12/01 06:37:58;;;;;;;;;;;;;;;0.70;39.04;100601.59;5055715;28;19963;-57
2023/12/01 06:40:23;;;;;;;;;;;;;;;0.69;39.05;100609.66;5056296;28;19913;-58
2023/12/01 06:42:50;;;;;;;;;;;;;;;0.66;39.61;100607.25;5037839;28;19913;-58
2023/12/01 06:45:17;;;;;;;;;;;;;;;0.64;39.33;100599.47;5056008;28;19924;-59
2023/12/01 06:47:46;;;;;;;;;;;;;;;0.63;39.65;100605.69;5060873;28;19916;-58
2023/12/01 06:50:11;;;;;;;;;;;;;;;0.63;39.23;100610.16;5074650;28;19966;-59
2023/12/01 06:52:38;;;;;;;;;;;;;;;0.60;39.48;100611.25;5055713;28;20087;-57
2023/12/01 06:55:04;;;;;;;;;;;;;;;0.60;39.82;100611.25;5055306;28;19917;-58
2023/12/01 06:57:30;;;;;;;;;;;;;;;0.61;39.86;100618.19;5055553;28;20043;-58
2023/12/01 06:59:55;;;;;;;;;;;;;;;0.62;39.09;100616.41;5055755;28;20413;-56
2023/12/01 07:02:20;;;;;;;;;;;;;;;0.62;39.74;100616.41;5055437;28;19974;-57
2023/12/01 07:04:46;;;;;;;;;;;;;;;0.60;39.40;100605.13;5055199;28;19913;-58
2023/12/01 07:07:12;;;;;;;;;;;;;;;0.61;39.89;100612.91;5054616;28;19924;-59
2023/12/01 07:09:47;;;;;;;;;;;;;;;0.58;39.22;100614.00;5055150;28;19917;-58
2023/12/01 07:12:13;;;;;;;;;;;;;;;0.58;38.85;100624.59;5055359;28;20378;-58
2023/12/01 07:14:38;;;;;;;;;;;;;;;0.57;39.27;100608.84;5055005;28;19948;-55
2023/12/01 07:17:05;;;;;;;;;;;;;;;0.53;39.76;100610.06;5055124;28;19913;-58
2023/12/01 07:19:32;;;;;;;;;;;;;;;0.56;40.03;100612.47;5055210;28;19955;-58
2023/12/01 07:21:58;;;;;;;;;;;;;;;0.59;39.10;100614.84;5054909;28;19992;-58
2023/12/01 07:24:23;;;;;;;;;;;;;;;0.57;39.82;100614.13;5054933;28;20358;-57
2023/12/01 07:26:51;;;;;;;;;;;;;;;0.53;39.32;100621.47;5054799;28;19913;-58
2023/12/01 07:29:18;;;;;;;;;;;;;;;0.48;39.72;100617.53;5055233;28;20250;-57
2023/12/01 07:31:44;;;;;;;;;;;;;;;0.47;39.06;100613.22;5054736;28;20445;-59
2023/12/01 07:34:11;;;;;;;;;;;;;;;0.48;39.56;100612.25;5054724;28;19923;-58
2023/12/01 07:36:37;;;;;;;;;;;;;;;0.45;39.47;100617.78;5054872;28;19920;-58
2023/12/01 07:39:02;;;;;;;;;;;;;;;0.45;39.53;100613.34;5054921;28;19913;-59
2023/12/01 07:41:28;;;;;;;;;;;;;;;0.42;39.38;100618.88;5055055;28;19913;-59
2023/12/01 07:43:55;;;;;;;;;;;;;;;0.43;39.50;100614.41;5041717;28;19912;-59
2023/12/01 07:46:20;;;;;;;;;;;;;;;0.44;39.34;100613.47;5074575;28;20258;-59
2023/12/01 07:48:46;;;;;;;;;;;;;;;0.42;39.73;100613.56;5074096;28;19919;-58
2023/12/01 07:51:11;;;;;;;;;;;;;;;0.42;38.88;100610.09;5065458;28;19916;-58
2023/12/01 07:53:37;;;;;;;;;;;;;;;0.44;39.10;100616.94;5054244;28;19928;-59
2023/12/01 07:56:02;;;;;;;;;;;;;;;0.41;39.07;100614.56;5053571;28;19920;-58
2023/12/01 07:58:28;;;;;;;;;;;;;;;0.37;38.60;100619.25;5054336;28;20057;-58
2023/12/01 08:00:55;;;;;;;;;;;;;;;0.38;37.76;100620.91;5054450;28;19920;-59
2023/12/01 08:03:21;;;;;;;;;;;;;;;0.38;39.27;100620.06;5054217;28;19913;-58
2023/12/01 08:05:46;;;;;;;;;;;;;;;0.35;38.74;100622.97;5054537;28;20242;-58
2023/12/01 08:08:14;;;;;;;;;;;;;;;0.33;39.15;100619.59;5054265;28;20270;-59
2023/12/01 08:10:39;;;;;;;;;;;;;;;0.34;38.32;100618.66;5053810;28;19952;-58
2023/12/01 08:13:05;;;;;;;;;;;;;;;0.30;38.62;100622.50;5054281;28;20373;-58
2023/12/01 08:15:31;;;;;;;;;;;;;;;0.28;38.11;100625.28;5036072;28;20038;-58
2023/12/01 08:17:58;;;;;;;;;;;;;;;0.27;37.99;100628.03;5053478;28;19967;-58
2023/12/01 08:20:23;;;;;;;;;;;;;;;0.28;38.59;100627.91;5053950;28;19988;-58
2023/12/01 08:22:48;;;;;;;;;;;;;;;0.30;38.49;100625.97;5054113;28;19952;-58
2023/12/01 08:25:14;;;;;;;;;;;;;;;0.30;38.49;100633.91;5054109;28;20420;-58
2023/12/01 08:27:40;;;;;;;;;;;;;;;0.32;37.87;100636.44;5054053;28;19920;-57
2023/12/01 08:30:06;;;;;;;;;;;;;;;0.32;38.49;100641.72;5053546;28;19912;-58
2023/12/01 08:32:32;;;;;;;;;;;;;;;0.33;38.99;100633.63;5053985;28;19959;-59
2023/12/01 08:34:57;;;;;;;;;;;;;;;0.34;38.43;100629.22;5053529;28;19951;-59
2023/12/01 08:37:23;;;;;;;;;;;;;;;0.34;38.61;100637.16;5054154;28;20031;-59
2023/12/01 08:39:49;;;;;;;;;;;;;;;0.32;38.09;100639.06;5055487;28;19952;-56
2023/12/01 08:42:14;;;;;;;;;;;;;;;0.30;38.05;100643.66;5073584;28;19969;-58
2023/12/01 08:44:40;;;;;;;;;;;;;;;0.30;38.32;100643.66;5073630;28;20010;-58
2023/12/01 08:47:05;;;;;;;;;;;;;;;0.32;38.26;100647.81;5073573;28;20292;-57
2023/12/01 08:49:31;;;;;;;;;;;;;;;0.34;38.01;100645.91;5069813;28;19913;-58
2023/12/01 08:51:56;;;;;;;;;;;;;;;0.36;37.93;100653.72;5053559;28;19951;-59
2023/12/01 08:54:22;;;;;;;;;;;;;;;0.40;38.62;100656.94;5052935;28;20384;-58
2023/12/01 08:56:48;;;;;;;;;;;;;;;0.38;37.75;100655.25;5053557;28;19916;-58
2023/12/01 08:59:13;;;;;;;;;;;;;;;0.42;38.57;100652.38;5053382;28;19990;-59
2023/12/01 09:01:40;;;;;;;;;;;;;;;0.44;37.75;100653.09;5052892;28;19913;-58
2023/12/01 09:04:06;;;;;;;;;;;;;;;0.45;38.28;100652.97;5053067;28;19921;-58
2023/12/01 09:06:31;;;;;;;;;;;;;;;0.51;37.98;100651.63;5053232;28;20294;-57
2023/12/01 09:08:57;;;;;;;;;;;;;;;0.51;37.63;100663.03;5052888;28;20293;-58
2023/12/01 09:11:23;;;;;;;;;;;;;;;0.57;38.29;100653.78;5052724;28;19920;-58
2023/12/01 09:13:49;;;;;;;;;;;;;;;0.64;38.16;100659.41;5052716;28;19921;-57
2023/12/01 09:16:14;;;;;;;;;;;;;;;0.69;38.27;100651.97;5053005;28;19952;-58
2023/12/01 09:18:39;;;;;;;;;;;;;;;0.75;38.06;100652.28;5053350;28;19943;-57
2023/12/01 09:21:05;;;;;;;;;;;;;;;0.81;37.98;100650.09;5053579;28;19913;-58
2023/12/01 09:23:32;;;;;;;;;;;;;;;0.84;37.99;100642.75;5053259;28;20262;-58
2023/12/01 09:25:57;;;;;;;;;;;;;;;0.91;37.85;100654.50;5035624;28;20480;-57
2023/12/01 09:28:23;;;;;;;;;;;;;;;0.97;37.76;100645.22;5053488;28;19912;-59
2023/12/01 09:30:48;;;;;;;;;;;;;;;1.02;37.39;100656.25;5056198;28;20361;-58
2023/12/01 09:33:14;;;;;;;;;;;;;;;1.09;37.34;100656.59;5057659;28;19917;-59
2023/12/01 09:35:39;;;;;;;;;;;;;;;1.18;37.82;100655.81;5057017;28;20324;-58
2023/12/01 09:38:05;;;;;;;;;;;;;;;1.22;37.35;100654.59;5075527;28;19923;-58
2023/12/01 09:40:32;;;;;;;;;;;;;;;1.30;37.36;100654.81;5064848;28;19919;-58
2023/12/01 09:42:57;;;;;;;;;;;;;;;1.38;37.19;100655.97;5056955;28;19916;-58
2023/12/01 09:45:23;;;;;;;;;;;;;;;1.43;37.23;100653.75;5056874;28;19913;-58
2023/12/01 09:47:51;;;;;;;;;;;;;;;1.47;36.71;100655.19;5057035;28;19913;-59
2023/12/01 09:50:17;;;;;;;;;;;;;;;1.54;37.07;100657.19;5056894;28;19913;-59
2023/12/01 09:52:42;;;;;;;;;;;;;;;1.64;37.22;100657.22;5056574;28;20405;-59
2023/12/01 09:55:08;;;;;;;;;;;;;;;1.71;36.85;100655.75;5056017;28;19912;-59
2023/12/01 09:57:33;;;;;;;;;;;;;;;1.79;36.41;100656.91;5056598;28;19913;-59
2023/12/01 09:59:59;;;;;;;;;;;;;;;1.88;37.04;100654.28;5056866;28;20373;-57
2023/12/01 10:02:25;;;;;;;;;;;;;;;1.93;36.94;100660.03;5057015;28;20012;-59
2023/12/01 10:04:58;;;;;;;;;;;;;;;2.02;36.39;100654.91;5056957;28;19913;-59
2023/12/01 10:07:24;;;;;;;;;;;;;;;2.08;36.12;100649.91;5056833;28;20015;-59
2023/12/01 10:09:49;;;;;;;;;;;;;;;2.12;36.14;100648.66;5056627;28;19971;-58
2023/12/01 10:12:15;;;;;;;;;;;;;;;2.19;36.66;100648.13;5056332;28;19927;-59
2023/12/01 10:14:43;;;;;;;;;;;;;;;2.26;36.22;100642.16;5056679;28;20476;-59
2023/12/01 10:17:09;;;;;;;;;;;;;;;2.29;36.29;100641.88;5056723;28;19928;-59
2023/12/01 10:19:43;;;;;;;;;;;;;;;2.33;35.57;100640.63;5056752;28;20322;-58
2023/12/01 10:22:10;;;;;;;;;;;;;;;2.39;35.43;100647.19;5056439;28;19913;-59
2023/12/01 10:24:35;;;;;;;;;;;;;;;2.42;35.67;100644.28;5056367;28;19920;-58
2023/12/01 10:27:05;;;;;;;;;;;;;;;2.49;36.12;100639.28;5056399;28;19913;-58
2023/12/01 10:29:34;;;;;;;;;;;;;;;2.55;35.61;100635.25;5056134;28;19920;-58
2023/12/01 10:32:04;;;;;;;;;;;;;;;2.59;35.71;100636.66;5056300;28;19967;-57
2023/12/01 10:34:29;;;;;;;;;;;;;;;2.61;35.61;100635.53;5075790;28;19921;-58
2023/12/01 10:36:55;;;;;;;;;;;;;;;2.68;35.70;100631.34;5056532;28;19919;-59
2023/12/01 10:39:25;;;;;;;;;;;;;;;2.74;35.87;100632.59;5056271;28;20007;-59
2023/12/01 10:41:50;;;;;;;;;;;;;;;2.82;35.54;100626.59;5055078;28;19978;-58
2023/12/01 10:44:19;;;;;;;;;;;;;;;2.85;35.59;100628.97;5056265;28;19913;-59
2023/12/01 10:46:46;;;;;;;;;;;;;;;2.90;34.91;100624.09;5055692;28;19913;-59
2023/12/01 10:49:13;;;;;;;;;;;;;;;3.00;35.58;100621.44;5056194;28;19916;-57
2023/12/01 10:51:39;;;;;;;;;;;;;;;3.08;35.23;100616.25;5055787;28;19916;-57
2023/12/01 10:54:09;;;;;;;;;;;;;;;3.15;35.14;100614.72;5055006;28;19960;-57
2023/12/01 10:56:39;;;;;;;;;;;;;;;3.24;34.92;100608.56;5055456;28;20255;-59
2023/12/01 10:59:05;;;;;;;;;;;;;;;3.33;35.20;100614.84;5055801;28;20003;-60
2023/12/01 11:01:32;;;;;;;;;;;;;;;3.38;35.02;100601.97;5056008;28;20386;-58
2023/12/01 11:04:00;;;;;;;;;;;;;;;3.44;34.52;100613.84;5055671;28;19979;-58
2023/12/01 11:06:51;;;;;;;;;;;;;;;3.55;34.40;100618.13;5055654;28;19913;-59
2023/12/01 11:09:28;;;;;;;;;;;;;;;3.65;34.61;100608.31;5039597;28;20270;-59
2023/12/01 11:12:00;;;;;;;;;;;;;;;3.73;33.98;100611.06;5055356;28;20334;-59
2023/12/01 11:14:26;;;;;;;;;;;;;;;3.81;34.18;100602.41;5055692;28;19917;-59
2023/12/01 11:16:53;;;;;;;;;;;;;;;3.89;34.83;100599.84;5055281;28;19917;-57
2023/12/01 11:19:18;;;;;;;;;;;;;;;3.98;33.31;100603.44;5055528;28;19917;-57
2023/12/01 11:21:44;;;;;;;;;;;;;;;4.06;34.36;100604.34;5055351;28;20278;-58
2023/12/01 11:24:37;;;;;;;;;;;;;;;4.17;34.26;100600.66;5055398;28;19967;-59
2023/12/01 11:27:03;;;;;;;;;;;;;;;4.20;34.11;100600.38;5052153;28;19917;-57
2023/12/01 11:29:28;;;;;;;;;;;;;;;4.28;33.84;100598.81;5064583;28;20276;-58
2023/12/01 11:31:57;;;;;;;;;;;;;;;4.35;34.41;100606.03;5074699;28;19917;-58
2023/12/01 11:34:23;;;;;;;;;;;;;;;4.45;34.30;100612.09;5075319;28;19916;-58
2023/12/01 11:36:49;;;;;;;;;;;;;;;4.52;33.77;100607.03;5056660;28;20304;-58
2023/12/01 11:39:27;;;;;;;;;;;;;;;4.58;33.86;100601.09;5054977;28;19967;-58
2023/12/01 11:41:59;;;;;;;;;;;;;;;4.70;34.45;100604.38;5055067;28;20011;-58
2023/12/01 11:44:32;;;;;;;;;;;;;;;4.79;34.12;100600.81;5054911;28;19920;-58
2023/12/01 11:47:01;;;;;;;;;;;;;;;4.89;33.50;100607.88;5054682;28;19975;-59
2023/12/01 11:49:31;;;;;;;;;;;;;;;4.93;33.29;100601.25;5054667;28;20382;-58
2023/12/01 11:52:04;;;;;;;;;;;;;;;5.09;33.77;100603.19;5037072;28;19913;-57
2023/12/01 11:54:35;;;;;;;;;;;;;;;5.18;33.93;100596.94;5053610;28;20390;-59
2023/12/01 11:57:02;;;;;;;;;;;;;;;5.25;32.49;100598.00;5054898;28;20335;-58
2023/12/01 11:59:27;;;;;;;;;;;;;;;5.38;34.44;100597.59;5054511;28;20340;-58
2023/12/01 12:01:54;;;;;;;;;;;;;;;5.47;34.30;100587.84;5054342;28;19951;-58
2023/12/01 12:04:19;;;;;;;;;;;;;;;5.48;32.13;100592.16;5054430;28;19919;-58
2023/12/01 12:06:45;;;;;;;;;;;;;;;5.54;33.68;100589.72;5054305;28;20292;-58
2023/12/01 12:09:17;;;;;;;;;;;;;;;5.60;34.18;100582.91;5054678;28;19916;-58
2023/12/01 12:11:48;;;;;;;;;;;;;;;5.62;34.42;100587.06;5053998;28;19924;-58
2023/12/01 12:14:14;;;;;;;;;;;;;;;5.71;32.39;100587.13;5054223;28;19921;-57
2023/12/01 12:16:40;;;;;;;;;;;;;;;5.79;33.33;100585.34;5053849;28;20277;-58
2023/12/01 12:19:06;;;;;;;;;;;;;;;5.82;32.55;100586.84;5054109;28;19912;-58
2023/12/01 12:21:33;;;;;;;;;;;;;;;5.91;32.78;100585.06;5053920;28;20356;-57
2023/12/01 12:23:59;;;;;;;;;;;;;;;5.99;32.01;100585.94;5054036;28;20257;-59
2023/12/01 12:26:26;;;;;;;;;;;;;;;6.06;32.32;100580.00;5068509;28;20007;-59
2023/12/01 12:28:53;;;;;;;;;;;;;;;6.19;32.91;100585.69;5074197;28;19912;-59
2023/12/01 12:31:19;;;;;;;;;;;;;;;6.26;32.86;100584.06;5073905;28;19917;-58
2023/12/01 12:33:46;;;;;;;;;;;;;;;6.34;32.21;100581.41;5073987;28;19916;-58
2023/12/01 12:36:12;;;;;;;;;;;;;;;6.42;32.14;100579.75;5060778;28;19936;-58
2023/12/01 12:38:38;;;;;;;;;;;;;;;6.39;32.56;100586.25;5054108;28;19916;-57
2023/12/01 12:41:19;;;;;;;;;;;;;;;6.44;33.42;100581.25;5054216;28;19920;-59
2023/12/01 12:43:48;;;;;;;;;;;;;;;6.51;32.68;100574.25;5054061;28;19917;-59